createdAt,value
2023-01-19T00:00:12.739Z,10.77
2023-01-19T00:02:39.427Z,10.63
2023-01-19T00:05:07.860Z,10.63
2023-01-19T00:07:34.519Z,10.95
2023-01-19T00:10:01.097Z,10.88
2023-01-19T00:12:27.787Z,11.27
2023-01-19T00:14:54.523Z,10.57
2023-01-19T00:17:21.125Z,10.07
2023-01-19T00:19:47.863Z,11.32
2023-01-19T00:22:15.850Z,10.20
2023-01-19T00:24:42.589Z,9.85
2023-01-19T00:27:09.216Z,10.05
2023-01-19T00:29:35.790Z,9.60
2023-01-19T00:32:03.892Z,12.18
2023-01-19T00:34:30.967Z,9.90
2023-01-19T00:36:57.609Z,9.70
2023-01-19T00:39:25.598Z,10.13
2023-01-19T00:41:52.183Z,10.35
2023-01-19T00:44:18.864Z,9.98
2023-01-19T00:46:45.415Z,9.35
2023-01-19T00:49:12.234Z,10.00
2023-01-19T00:51:38.822Z,9.73
2023-01-19T00:54:05.517Z,9.48
2023-01-19T00:56:33.678Z,8.98
2023-01-19T00:59:00.347Z,10.13
2023-01-19T01:01:45.626Z,9.10
2023-01-19T01:04:12.882Z,8.93
2023-01-19T01:06:39.543Z,10.48
2023-01-19T01:09:06.333Z,9.05
2023-01-19T01:11:34.359Z,8.25
2023-01-19T01:14:00.971Z,9.15
2023-01-19T01:16:27.705Z,8.02
2023-01-19T01:18:54.392Z,8.18
2023-01-19T01:21:20.936Z,8.70
2023-01-19T01:23:47.548Z,9.38
2023-01-19T01:26:14.164Z,8.75
2023-01-19T01:28:42.194Z,8.60
2023-01-19T01:31:08.751Z,8.20
2023-01-19T01:33:40.925Z,8.68
2023-01-19T01:38:35.739Z,7.72
2023-01-19T01:41:02.397Z,7.63
2023-01-19T01:43:44.365Z,7.85
2023-01-19T01:46:11.849Z,7.60
2023-01-19T01:48:40.296Z,7.40
2023-01-19T01:51:09.177Z,8.10
2023-01-19T01:53:37.420Z,7.38
2023-01-19T01:56:09.672Z,8.32
2023-01-19T01:58:37.771Z,5.60
2023-01-19T02:01:07.292Z,8.45
2023-01-19T02:03:34.042Z,8.30
2023-01-19T02:06:04.335Z,8.07
2023-01-19T02:08:35.402Z,7.55
2023-01-19T02:11:03.327Z,7.90
2023-01-19T02:13:32.900Z,7.68
2023-01-19T02:16:02.692Z,7.75
2023-01-19T02:18:32.151Z,8.02
2023-01-19T02:21:08.130Z,9.20
2023-01-19T02:23:42.697Z,8.48
2023-01-19T02:26:11.956Z,8.80
2023-01-19T02:28:41.578Z,7.85
2023-01-19T02:31:08.206Z,8.52
2023-01-19T02:33:34.957Z,8.32
2023-01-19T02:36:02.158Z,8.70
2023-01-19T02:38:30.286Z,7.78
2023-01-19T02:41:01.043Z,8.55
2023-01-19T02:43:28.824Z,8.50
2023-01-19T02:45:55.557Z,7.60
2023-01-19T02:48:22.310Z,7.80
2023-01-19T02:50:51.146Z,8.10
2023-01-19T02:53:47.857Z,7.55
2023-01-19T02:56:37.103Z,8.45
2023-01-19T02:59:10.671Z,8.23
2023-01-19T03:01:48.590Z,7.13
2023-01-19T03:04:27.126Z,7.07
2023-01-19T03:07:02.712Z,7.38
2023-01-19T03:09:35.289Z,7.28
2023-01-19T03:12:09.236Z,7.75
2023-01-19T03:14:42.191Z,8.35
2023-01-19T03:17:12.378Z,7.97
2023-01-19T03:19:41.378Z,9.05
2023-01-19T03:22:13.247Z,8.57
2023-01-19T03:24:42.672Z,8.95
2023-01-19T03:27:14.831Z,8.32
2023-01-19T03:29:45.565Z,7.22
2023-01-19T03:32:17.711Z,8.52
2023-01-19T03:34:46.787Z,8.27
2023-01-19T03:37:16.286Z,8.52
2023-01-19T03:39:43.277Z,8.50
2023-01-19T03:42:14.216Z,9.13
2023-01-19T03:44:42.940Z,8.80
2023-01-19T03:47:11.565Z,8.73
2023-01-19T03:49:41.435Z,8.55
2023-01-19T03:52:08.193Z,7.80
2023-01-19T03:54:34.870Z,8.60
2023-01-19T03:57:01.514Z,7.97
2023-01-19T03:59:29.489Z,8.55
2023-01-19T04:01:56.151Z,8.95
2023-01-19T04:04:22.840Z,10.65
2023-01-19T04:06:49.483Z,8.85
2023-01-19T04:09:17.520Z,8.82
2023-01-19T04:11:45.181Z,9.23
2023-01-19T04:14:11.760Z,8.65
2023-01-19T04:16:39.724Z,10.50
2023-01-19T04:19:06.259Z,8.98
2023-01-19T04:21:33.120Z,9.10
2023-01-19T04:23:59.717Z,10.48
2023-01-19T04:26:26.389Z,10.93
2023-01-19T04:28:52.979Z,10.32
2023-01-19T04:31:19.694Z,9.77
2023-01-19T04:33:47.703Z,10.77
2023-01-19T04:36:14.318Z,10.30
2023-01-19T04:38:40.953Z,11.13
2023-01-19T04:41:07.564Z,10.73
2023-01-19T04:43:34.274Z,13.00
2023-01-19T04:46:00.883Z,11.75
2023-01-19T04:48:27.489Z,13.65
2023-01-19T04:50:55.457Z,12.68
2023-01-19T04:53:22.076Z,16.48
2023-01-19T04:55:53.048Z,14.13
2023-01-19T04:58:19.698Z,12.95
2023-01-19T05:00:46.428Z,12.35
2023-01-19T05:03:13.106Z,12.38
2023-01-19T05:05:39.918Z,11.80
2023-01-19T05:08:07.934Z,12.30
2023-01-19T05:10:34.531Z,19.00
2023-01-19T05:13:01.485Z,14.50
2023-01-19T05:15:28.284Z,13.63
2023-01-19T05:17:54.941Z,13.45
2023-01-19T05:20:21.567Z,13.85
2023-01-19T05:22:51.970Z,13.45
2023-01-19T05:25:20.376Z,13.35
2023-01-19T05:27:47.048Z,11.77
2023-01-19T05:30:14.295Z,11.90
2023-01-19T05:32:40.941Z,11.48
2023-01-19T05:35:08.804Z,11.95
2023-01-19T05:37:35.443Z,12.43
2023-01-19T05:40:02.120Z,12.48
2023-01-19T05:42:32.085Z,12.38
2023-01-19T05:44:59.623Z,10.82
2023-01-19T05:47:26.620Z,11.77
2023-01-19T05:49:53.247Z,12.27
2023-01-19T05:52:19.972Z,11.75
2023-01-19T05:54:46.591Z,12.20
2023-01-19T05:57:13.219Z,12.30
2023-01-19T05:59:41.191Z,12.90
2023-01-19T06:02:07.928Z,13.15
2023-01-19T06:04:34.605Z,11.65
2023-01-19T06:07:01.197Z,14.15
2023-01-19T06:09:28.036Z,13.80
2023-01-19T06:11:54.698Z,12.98
2023-01-19T06:14:21.325Z,12.48
2023-01-19T06:16:49.329Z,15.40
2023-01-19T06:19:15.983Z,14.05
2023-01-19T06:21:42.580Z,12.52
2023-01-19T06:24:09.628Z,12.82
2023-01-19T06:26:36.235Z,11.65
2023-01-19T06:29:02.941Z,13.52
2023-01-19T06:31:29.573Z,13.02
2023-01-19T06:33:57.535Z,13.20
2023-01-19T06:36:24.111Z,12.98
2023-01-19T06:38:50.663Z,13.65
2023-01-19T06:41:17.285Z,13.25
2023-01-19T06:43:43.818Z,12.50
2023-01-19T06:46:10.456Z,13.23
2023-01-19T06:48:37.040Z,13.43
2023-01-19T06:51:05.653Z,13.20
2023-01-19T06:53:32.321Z,13.73
2023-01-19T06:55:59.794Z,12.13
2023-01-19T06:58:27.109Z,12.35
2023-01-19T07:00:53.821Z,13.88
2023-01-19T07:03:22.322Z,12.77
2023-01-19T07:05:52.017Z,12.85
2023-01-19T07:08:19.983Z,13.25
2023-01-19T07:11:25.691Z,12.60
2023-01-19T07:13:34.240Z,13.00
2023-01-19T07:16:04.347Z,12.65
2023-01-19T07:18:30.949Z,12.27
2023-01-19T07:20:57.579Z,13.30
2023-01-19T07:23:25.659Z,13.05
2023-01-19T07:25:52.323Z,11.93
2023-01-19T07:28:18.960Z,12.95
2023-01-19T07:30:45.763Z,12.30
2023-01-19T07:33:12.614Z,12.35
2023-01-19T07:35:39.228Z,13.65
2023-01-19T07:38:05.852Z,13.80
2023-01-19T07:40:33.852Z,15.85
2023-01-19T07:43:00.874Z,21.75
2023-01-19T07:45:28.080Z,17.35
2023-01-19T07:47:54.699Z,13.60
2023-01-19T07:50:21.526Z,12.63
2023-01-19T07:52:48.127Z,12.82
2023-01-19T07:55:14.803Z,12.80
2023-01-19T07:57:42.779Z,13.73
2023-01-19T08:00:11.883Z,12.95
2023-01-19T08:02:38.711Z,12.90
2023-01-19T08:05:06.090Z,12.98
2023-01-19T08:07:33.695Z,13.10
2023-01-19T08:10:00.279Z,12.85
2023-01-19T08:12:26.940Z,12.85
2023-01-19T08:14:54.951Z,14.40
2023-01-19T08:17:21.538Z,18.90
2023-01-19T08:19:48.166Z,22.63
2023-01-19T08:22:14.761Z,29.92
2023-01-19T08:24:41.347Z,28.10
2023-01-19T08:27:08.051Z,30.13
2023-01-19T08:29:34.728Z,23.00
2023-01-19T08:32:02.787Z,22.85
2023-01-19T08:34:29.745Z,17.92
2023-01-19T08:36:56.472Z,15.85
2023-01-19T08:39:23.035Z,16.48
2023-01-19T08:41:49.719Z,13.88
2023-01-19T08:44:16.359Z,12.50
2023-01-19T08:46:43.057Z,11.75
2023-01-19T08:49:11.239Z,12.13
2023-01-19T08:51:38.023Z,11.07
2023-01-19T08:54:05.024Z,10.80
2023-01-19T08:56:31.696Z,10.52
2023-01-19T08:59:08.668Z,9.88
2023-01-19T09:01:36.723Z,10.35
2023-01-19T09:04:03.662Z,10.30
2023-01-19T09:06:31.678Z,9.90
2023-01-19T09:08:58.295Z,9.85
2023-01-19T09:11:24.885Z,10.02
2023-01-19T09:13:51.561Z,9.02
2023-01-19T09:16:18.417Z,9.68
2023-01-19T09:18:45.071Z,9.57
2023-01-19T09:21:11.704Z,8.73
2023-01-19T09:23:39.697Z,9.13
2023-01-19T09:26:07.498Z,8.27
2023-01-19T09:28:34.309Z,8.68
2023-01-19T09:31:05.209Z,8.65
2023-01-19T09:33:31.932Z,9.48
2023-01-19T09:35:58.629Z,8.18
2023-01-19T09:38:25.199Z,11.00
2023-01-19T09:40:55.826Z,29.05
2023-01-19T09:43:35.136Z,17.27
2023-01-19T09:46:03.692Z,16.85
2023-01-19T09:48:45.244Z,11.75
2023-01-19T09:51:15.504Z,12.43
2023-01-19T09:53:54.667Z,11.20
2023-01-19T09:56:23.621Z,12.30
2023-01-19T09:58:51.589Z,9.88
2023-01-19T10:01:46.745Z,10.25
2023-01-19T10:04:31.916Z,10.30
2023-01-19T10:07:30.073Z,11.32
2023-01-19T10:10:12.099Z,8.50
2023-01-19T10:13:11.067Z,9.55
2023-01-19T10:15:54.950Z,8.05
2023-01-19T10:18:24.604Z,7.35
2023-01-19T10:20:56.242Z,7.40
2023-01-19T10:23:34.720Z,8.60
2023-01-19T10:26:05.795Z,7.30
2023-01-19T10:28:33.082Z,7.40
2023-01-19T10:31:01.363Z,12.10
2023-01-19T10:33:28.722Z,11.70
2023-01-19T10:35:55.369Z,8.10
2023-01-19T10:38:22.206Z,7.57
2023-01-19T10:40:55.070Z,7.97
2023-01-19T10:43:43.377Z,7.53
2023-01-19T10:46:21.931Z,8.68
2023-01-19T10:48:50.864Z,14.68
2023-01-19T10:51:17.809Z,9.05
2023-01-19T10:53:55.578Z,7.63
2023-01-19T10:56:24.501Z,9.10
2023-01-19T10:58:51.825Z,8.65
2023-01-19T11:01:21.757Z,10.85
2023-01-19T11:03:49.062Z,7.72
2023-01-19T11:06:27.519Z,7.70
2023-01-19T11:09:10.251Z,18.88
2023-01-19T11:11:43.596Z,19.60
2023-01-19T11:16:39.812Z,9.43
2023-01-19T11:19:17.237Z,7.22
2023-01-19T11:21:43.863Z,8.25
2023-01-19T11:24:11.248Z,6.90
2023-01-19T11:26:41.425Z,7.90
2023-01-19T11:29:17.528Z,15.95
2023-01-19T11:31:45.969Z,9.15
2023-01-19T11:34:32.141Z,7.95
2023-01-19T11:37:00.841Z,7.97
2023-01-19T11:39:29.286Z,7.15
2023-01-19T11:41:58.565Z,7.05
2023-01-19T11:44:30.378Z,7.22
2023-01-19T11:47:00.135Z,7.45
2023-01-19T11:49:36.891Z,6.57
2023-01-19T11:52:06.467Z,6.90
2023-01-19T11:54:37.106Z,8.02
2023-01-19T11:57:12.199Z,7.30
2023-01-19T11:59:38.996Z,6.82
2023-01-19T12:02:18.846Z,5.85
2023-01-19T12:04:47.595Z,6.65
2023-01-19T12:07:18.400Z,6.68
2023-01-19T12:09:48.955Z,6.57
2023-01-19T12:12:26.806Z,7.18
2023-01-19T12:14:59.618Z,7.35
2023-01-19T12:17:31.121Z,6.70
2023-01-19T12:20:05.780Z,7.47
2023-01-19T12:22:42.716Z,6.38
2023-01-19T12:25:20.120Z,6.75
2023-01-19T12:27:48.752Z,6.88
2023-01-19T12:30:21.368Z,6.60
2023-01-19T12:32:49.804Z,6.40
2023-01-19T12:35:53.854Z,6.22
2023-01-19T12:38:33.257Z,6.00
2023-01-19T12:41:20.453Z,5.75
2023-01-19T12:43:47.376Z,6.15
2023-01-19T12:46:27.663Z,6.57
2023-01-19T12:49:03.971Z,6.38
2023-01-19T12:51:30.963Z,5.88
2023-01-19T12:53:58.796Z,6.28
2023-01-19T12:56:32.067Z,6.47
2023-01-19T13:01:25.928Z,5.88
2023-01-19T13:04:02.459Z,5.80
2023-01-19T13:07:09.357Z,6.03
2023-01-19T13:09:38.023Z,6.30
2023-01-19T13:12:21.971Z,5.93
2023-01-19T13:14:48.754Z,7.30
2023-01-19T13:17:33.984Z,6.18
2023-01-19T13:20:18.730Z,5.63
2023-01-19T13:23:13.299Z,5.88
2023-01-19T13:25:41.174Z,5.97
2023-01-19T13:28:10.124Z,6.00
2023-01-19T13:30:51.224Z,6.57
2023-01-19T13:33:21.545Z,6.38
2023-01-19T13:35:53.767Z,6.00
2023-01-19T13:38:22.402Z,6.38
2023-01-19T13:40:49.726Z,6.32
2023-01-19T13:43:21.158Z,6.07
2023-01-19T13:45:52.412Z,6.43
2023-01-19T13:48:22.071Z,5.55
2023-01-19T13:51:01.933Z,6.75
2023-01-19T13:53:28.656Z,6.75
2023-01-19T13:56:17.640Z,5.90
2023-01-19T13:58:56.620Z,6.00
2023-01-19T14:01:23.909Z,6.10
2023-01-19T14:03:51.009Z,5.57
2023-01-19T14:06:29.266Z,5.70
2023-01-19T14:09:15.926Z,6.03
2023-01-19T14:11:42.833Z,6.05
2023-01-19T14:14:23.419Z,6.18
2023-01-19T14:16:50.140Z,5.88
2023-01-19T14:19:16.757Z,5.72
2023-01-19T14:21:44.732Z,6.13
2023-01-19T14:24:17.779Z,5.53
2023-01-19T14:26:46.996Z,5.20
2023-01-19T14:29:26.064Z,6.57
2023-01-19T14:32:05.681Z,6.70
2023-01-19T14:34:34.547Z,5.78
2023-01-19T14:37:05.041Z,6.60
2023-01-19T14:39:34.648Z,6.63
2023-01-19T14:42:05.905Z,6.22
2023-01-19T14:44:35.493Z,5.65
2023-01-19T14:47:03.081Z,5.82
2023-01-19T14:49:33.786Z,5.88
2023-01-19T14:52:05.174Z,6.20
2023-01-19T14:54:35.858Z,6.15
2023-01-19T14:57:02.413Z,5.88
2023-01-19T14:59:29.110Z,5.68
2023-01-19T15:01:55.865Z,5.70
2023-01-19T15:04:22.586Z,5.75
2023-01-19T15:06:49.474Z,6.45
2023-01-19T15:09:17.798Z,5.85
2023-01-19T15:11:47.412Z,7.22
2023-01-19T15:14:15.311Z,6.63
2023-01-19T15:16:42.646Z,5.90
2023-01-19T15:19:11.781Z,7.13
2023-01-19T15:21:38.435Z,6.07
2023-01-19T15:24:05.351Z,6.22
2023-01-19T15:26:33.493Z,6.47
2023-01-19T15:29:00.105Z,6.45
2023-01-19T15:31:26.816Z,6.15
2023-01-19T15:33:53.462Z,7.75
2023-01-19T15:36:22.084Z,7.43
2023-01-19T15:38:48.752Z,8.15
2023-01-19T15:41:23.083Z,9.50
2023-01-19T15:43:51.567Z,9.40
2023-01-19T15:46:19.727Z,8.60
2023-01-19T15:48:46.521Z,9.10
2023-01-19T15:51:14.271Z,8.80
2023-01-19T15:53:42.074Z,9.25
2023-01-19T15:56:14.701Z,11.88
2023-01-19T15:58:41.610Z,10.43
2023-01-19T16:01:12.842Z,12.02
2023-01-19T16:03:40.056Z,11.02
2023-01-19T16:06:07.520Z,10.18
2023-01-19T16:08:34.233Z,10.43
2023-01-19T16:11:04.104Z,11.00
2023-01-19T16:13:30.939Z,16.48
2023-01-19T16:16:02.211Z,10.23
2023-01-19T16:18:30.778Z,10.75
2023-01-19T16:20:57.393Z,11.75
2023-01-19T16:23:24.134Z,10.32
2023-01-19T16:25:58.515Z,10.77
2023-01-19T16:28:26.431Z,11.18
2023-01-19T16:30:53.396Z,11.30
2023-01-19T16:33:20.044Z,12.75
2023-01-19T16:35:48.302Z,11.02
2023-01-19T16:38:14.948Z,10.27
2023-01-19T16:40:43.831Z,10.63
2023-01-19T16:43:10.469Z,10.85
2023-01-19T16:45:55.309Z,11.02
2023-01-19T16:48:21.936Z,12.20
2023-01-19T16:50:57.917Z,11.65
2023-01-19T16:53:24.482Z,10.70
2023-01-19T16:55:51.090Z,10.73
2023-01-19T16:58:17.846Z,11.27
2023-01-19T17:00:44.548Z,10.70
2023-01-19T17:03:11.334Z,10.48
2023-01-19T17:05:38.109Z,11.25
2023-01-19T17:08:06.217Z,9.75
2023-01-19T17:10:36.290Z,10.32
2023-01-19T17:13:02.885Z,10.52
2023-01-19T17:15:30.395Z,10.05
2023-01-19T17:17:57.168Z,10.10
2023-01-19T17:20:23.744Z,10.18
2023-01-19T17:22:50.338Z,10.38
2023-01-19T17:25:18.419Z,10.07
2023-01-19T17:27:44.972Z,9.63
2023-01-19T17:30:12.241Z,10.15
2023-01-19T17:32:38.981Z,9.52
2023-01-19T17:35:06.382Z,9.65
2023-01-19T17:37:33.100Z,9.50
2023-01-19T17:39:59.686Z,8.68
2023-01-19T17:42:27.780Z,8.93
2023-01-19T17:44:54.598Z,9.02
2023-01-19T17:47:21.170Z,9.10
2023-01-19T17:49:47.775Z,9.43
2023-01-19T17:52:16.476Z,9.88
2023-01-19T17:54:44.469Z,9.80
2023-01-19T17:57:11.078Z,10.00
2023-01-19T17:59:39.075Z,9.82
2023-01-19T18:02:05.956Z,9.38
2023-01-19T18:04:32.634Z,9.82
2023-01-19T18:06:59.397Z,9.40
2023-01-19T18:09:26.006Z,9.80
2023-01-19T18:11:52.642Z,8.98
2023-01-19T18:14:19.294Z,9.43
2023-01-19T18:16:47.570Z,10.93
2023-01-19T18:19:14.303Z,9.85
2023-01-19T18:21:40.919Z,11.55
2023-01-19T18:24:07.808Z,10.63
2023-01-19T18:26:35.446Z,11.57
2023-01-19T18:29:02.080Z,10.93
2023-01-19T18:31:29.005Z,12.65
2023-01-19T18:33:57.177Z,10.60
2023-01-19T18:36:23.861Z,10.88
2023-01-19T18:38:50.585Z,10.05
2023-01-19T18:41:18.944Z,10.52
2023-01-19T18:43:46.030Z,10.93
2023-01-19T18:46:13.187Z,12.00
2023-01-19T18:48:40.137Z,13.52
2023-01-19T18:51:09.343Z,10.95
2023-01-19T18:53:36.467Z,12.98
2023-01-19T18:56:04.766Z,11.40
2023-01-19T18:58:32.409Z,10.55
2023-01-19T19:01:00.393Z,11.10
2023-01-19T19:03:27.738Z,10.15
2023-01-19T19:05:54.865Z,9.13
2023-01-19T19:08:23.067Z,10.20
2023-01-19T19:10:49.830Z,9.65
2023-01-19T19:13:16.924Z,9.88
2023-01-19T19:15:43.645Z,11.85
2023-01-19T19:18:10.494Z,12.10
2023-01-19T19:20:38.187Z,11.00
2023-01-19T19:23:04.878Z,10.38
2023-01-19T19:25:33.205Z,9.75
2023-01-19T19:27:59.902Z,10.00
2023-01-19T19:30:26.595Z,9.45
2023-01-19T19:32:53.495Z,9.80
2023-01-19T19:35:20.256Z,9.27
2023-01-19T19:37:47.453Z,9.80
2023-01-19T19:40:14.895Z,10.07
2023-01-19T19:42:43.049Z,9.40
2023-01-19T19:45:11.087Z,9.82
2023-01-19T19:47:37.704Z,8.80
2023-01-19T19:50:04.731Z,9.55
2023-01-19T19:52:31.367Z,9.32
2023-01-19T19:54:57.967Z,9.38
2023-01-19T19:57:24.631Z,9.20
2023-01-19T19:59:52.554Z,9.25
2023-01-19T20:02:19.295Z,8.73
2023-01-19T20:04:46.040Z,8.50
2023-01-19T20:07:12.707Z,9.00
2023-01-19T20:09:39.411Z,8.23
2023-01-19T20:12:06.786Z,9.05
2023-01-19T20:14:33.433Z,8.68
2023-01-19T20:17:01.358Z,9.07
2023-01-19T20:19:28.041Z,8.68
2023-01-19T20:21:54.648Z,8.60
2023-01-19T20:24:21.437Z,8.50
2023-01-19T20:26:50.380Z,9.25
2023-01-19T20:29:17.473Z,8.90
2023-01-19T20:31:46.126Z,8.27
2023-01-19T20:34:16.899Z,8.55
2023-01-19T20:36:43.687Z,7.78
2023-01-19T20:39:10.311Z,7.65
2023-01-19T20:41:37.779Z,8.85
2023-01-19T20:44:04.483Z,8.65
2023-01-19T20:46:31.131Z,8.70
2023-01-19T20:48:57.801Z,8.50
2023-01-19T20:51:25.856Z,8.20
2023-01-19T20:53:52.503Z,8.55
2023-01-19T20:56:19.106Z,9.32
2023-01-19T20:58:45.809Z,8.38
2023-01-19T21:01:14.839Z,8.00
2023-01-19T21:03:42.190Z,8.82
2023-01-19T21:06:09.061Z,8.73
2023-01-19T21:08:37.416Z,9.85
2023-01-19T21:11:05.015Z,8.98
2023-01-19T21:13:31.653Z,9.25
2023-01-19T21:15:58.925Z,10.18
2023-01-19T21:18:25.781Z,9.48
2023-01-19T21:20:52.521Z,9.70
2023-01-19T21:23:19.110Z,9.27
2023-01-19T21:25:51.009Z,9.90
2023-01-19T21:28:17.803Z,8.80
2023-01-19T21:30:44.679Z,8.60
2023-01-19T21:33:11.585Z,9.30
2023-01-19T21:35:38.796Z,10.02
2023-01-19T21:38:05.723Z,10.07
2023-01-19T21:40:32.424Z,10.15
2023-01-19T21:43:00.453Z,10.43
2023-01-19T21:45:27.086Z,9.52
2023-01-19T21:47:53.842Z,8.98
2023-01-19T21:50:20.571Z,10.07
2023-01-19T21:52:47.209Z,11.10
2023-01-19T21:55:14.093Z,9.48
2023-01-19T21:57:40.917Z,10.05
2023-01-19T22:00:10.367Z,9.55
2023-01-19T22:02:38.810Z,10.07
2023-01-19T22:05:06.587Z,10.27
2023-01-19T22:07:33.179Z,10.32
2023-01-19T22:09:59.741Z,10.38
2023-01-19T22:12:26.444Z,9.73
2023-01-19T22:14:53.776Z,10.77
2023-01-19T22:17:22.304Z,10.07
2023-01-19T22:19:48.949Z,10.32
2023-01-19T22:22:15.737Z,11.27
2023-01-19T22:24:42.309Z,11.90
2023-01-19T22:27:08.911Z,10.82
2023-01-19T22:29:35.534Z,11.35
2023-01-19T22:32:02.114Z,11.82
2023-01-19T22:34:30.088Z,11.98
2023-01-19T22:36:56.724Z,11.18
2023-01-19T22:39:23.318Z,11.05
2023-01-19T22:41:50.001Z,10.32
2023-01-19T22:44:18.232Z,10.98
2023-01-19T22:46:44.815Z,11.30
2023-01-19T22:49:13.597Z,10.43
2023-01-19T22:51:42.099Z,11.20
2023-01-19T22:54:09.250Z,10.20
2023-01-19T22:56:37.681Z,11.63
2023-01-19T22:59:05.625Z,10.40
2023-01-19T23:01:34.618Z,10.57
2023-01-19T23:04:02.852Z,10.85
2023-01-19T23:06:47.737Z,10.60
2023-01-19T23:09:14.606Z,13.25
2023-01-19T23:11:42.696Z,11.90
2023-01-19T23:14:13.597Z,12.25
2023-01-19T23:16:40.229Z,11.73
2023-01-19T23:19:06.833Z,13.43
2023-01-19T23:21:33.773Z,12.45
2023-01-19T23:24:03.845Z,12.68
2023-01-19T23:26:31.615Z,12.13
2023-01-19T23:29:00.380Z,11.93
2023-01-19T23:31:30.084Z,12.80
2023-01-19T23:33:58.288Z,11.90
2023-01-19T23:36:26.792Z,12.02
2023-01-19T23:38:55.025Z,12.70
2023-01-19T23:41:24.128Z,13.18
2023-01-19T23:43:51.667Z,11.98
2023-01-19T23:46:20.139Z,12.10
2023-01-19T23:48:47.221Z,12.85
2023-01-19T23:51:16.116Z,13.15
2023-01-19T23:53:42.676Z,13.27
2023-01-19T23:56:10.633Z,11.60
2023-01-19T23:58:38.773Z,12.73
